Stolt Effort — ZCSP6 — position and weather

sailwx.info

Track history (hours):
 
Tides and Currents Weather Stations Pressure Air Temp Water Temp Dewpoint Dewpoint Depression Visibility Wind Speed Wind Dir Waves Ship Positions

Stolt Effort

Last reported at 2015-Feb-27 16:12 UTC. Time now 2015-Feb-27 16:53 UTC.
Position N 40°27' W 073°51'.

Length 176 m; draft 8.5 m.

Type: Ship (hazmat cat B). MMSI: 319445000.

Date/timePositionNaut miles runAvg speedWind from/ knotsBaromVisibWave heightAir tempDewpointWater temp
2015-Feb-27 16:12N 40°27' W 073°51'6 9.2
2015-Feb-27 15:33N 40°30' W 073°57'1110.8
2015-Feb-27 14:33N 40°39' W 074°06'1 0.7
2015-Feb-27 13:32N 40°39' W 074°07'0 0.0
2015-Feb-27 12:32N 40°39' W 074°07'0 0.0
2015-Feb-27 11:32N 40°39' W 074°07'0 0.0
2015-Feb-27 10:32N 40°39' W 074°07'0 0.0
2015-Feb-27 09:32N 40°39' W 074°07'0 0.0
2015-Feb-27 08:26N 40°39' W 074°07'0 0.0
2015-Feb-27 07:32N 40°39' W 074°07'0 0.0
2015-Feb-27 06:32N 40°39' W 074°07'0 0.0
2015-Feb-27 05:32N 40°39' W 074°07'0 0.0
2015-Feb-27 04:32N 40°39' W 074°07'0 0.0
2015-Feb-27 03:32N 40°39' W 074°07'2 0.1
2015-Feb-25 21:21N 40°39' W 074°05'21 2.4
2015-Feb-25 12:15N 40°26' W 073°42'6 9.1
2015-Feb-25 11:33N 40°21' W 073°37'9 9.1
2015-Feb-25 10:32N 40°15' W 073°28'1111.4
2015-Feb-25 09:34N 40°08' W 073°16'1111.3
2015-Feb-25 08:34N 40°01' W 073°04'  
2015-Feb-19 11:28N 40°13' W 031°52'  
Track history (hours):
 
Tides and Currents Weather Stations Pressure Air Temp Water Temp Dewpoint Dewpoint Depression Visibility Wind Speed Wind Dir Waves Ship Positions

Stolt Effort

Last reported at 2015-Feb-27 16:12 UTC. Time now 2015-Feb-27 16:53 UTC.
Position N 40°27' W 073°51'.

Length 176 m; draft 8.5 m.

Type: Ship (hazmat cat B). MMSI: 319445000.

Date/timePositionNaut miles runAvg speedWind from/ knotsBaromVisibWave heightAir tempDewpointWater temp
2015-Feb-27 16:12N 40°27' W 073°51'6 9.2
2015-Feb-27 15:33N 40°30' W 073°57'1110.8
2015-Feb-27 14:33N 40°39' W 074°06'1 0.7
2015-Feb-27 13:32N 40°39' W 074°07'0 0.0
2015-Feb-27 12:32N 40°39' W 074°07'0 0.0
2015-Feb-27 11:32N 40°39' W 074°07'0 0.0
2015-Feb-27 10:32N 40°39' W 074°07'0 0.0
2015-Feb-27 09:32N 40°39' W 074°07'0 0.0
2015-Feb-27 08:26N 40°39' W 074°07'0 0.0
2015-Feb-27 07:32N 40°39' W 074°07'0 0.0
2015-Feb-27 06:32N 40°39' W 074°07'0 0.0
2015-Feb-27 05:32N 40°39' W 074°07'0 0.0
2015-Feb-27 04:32N 40°39' W 074°07'0 0.0
2015-Feb-27 03:32N 40°39' W 074°07'2 0.1
2015-Feb-25 21:21N 40°39' W 074°05'21 2.4
2015-Feb-25 12:15N 40°26' W 073°42'6 9.1
2015-Feb-25 11:33N 40°21' W 073°37'9 9.1
2015-Feb-25 10:32N 40°15' W 073°28'1111.4
2015-Feb-25 09:34N 40°08' W 073°16'1111.3
2015-Feb-25 08:34N 40°01' W 073°04'  
2015-Feb-19 11:28N 40°13' W 031°52'  

Dump ship's entire track history